Time;durP1;ratioP1;P1;durP2;ratioP2;P2;SDS_P1;SDS_P2;PMS_P1;PMS_P2;Temp;Humidity;BMP_temperature;BMP_pressure;BME280_temperature;BME280_humidity;BME280_pressure;Samples;Min_cycle;Max_cycle;Signal;HPM_P1;HPM_P2
2022/11/03 00:01:43;;;;;;;7.43;4.60;;;;;;;;;;4864975;29;20449;-83
2022/11/03 00:04:12;;;;;;;5.78;5.13;;;;;;;;;;4895748;29;20140;-83
2022/11/03 00:06:40;;;;;;;6.78;4.93;;;;;;;;;;4860713;29;20582;-83
2022/11/03 00:09:09;;;;;;;15.13;5.13;;;;;;;;;;4882976;29;20505;-83
2022/11/03 00:11:37;;;;;;;5.65;5.10;;;;;;;;;;4864811;29;20523;-82
2022/11/03 00:14:05;;;;;;;6.72;5.15;;;;;;;;;;4877931;29;20052;-82
2022/11/03 00:16:32;;;;;;;15.70;4.97;;;;;;;;;;4895224;29;20053;-82
2022/11/03 00:19:00;;;;;;;4.97;4.28;;;;;;;;;;4877114;29;20048;-82
2022/11/03 00:21:28;;;;;;;10.02;4.70;;;;;;;;;;4878606;29;20049;-83
2022/11/03 00:23:56;;;;;;;9.48;5.20;;;;;;;;;;4876461;29;20579;-83
2022/11/03 00:26:24;;;;;;;16.83;5.60;;;;;;;;;;4900479;29;20104;-82
2022/11/03 00:28:56;;;;;;;10.73;5.18;;;;;;;;;;4874812;29;20136;-83
2022/11/03 00:31:24;;;;;;;10.40;5.05;;;;;;;;;;4880868;29;20048;-81
2022/11/03 00:33:51;;;;;;;5.50;5.00;;;;;;;;;;4896131;29;20135;-82
2022/11/03 00:36:20;;;;;;;12.05;4.72;;;;;;;;;;4865494;29;20044;-82
2022/11/03 00:38:47;;;;;;;4.97;4.50;;;;;;;;;;4897007;29;20495;-82
2022/11/03 00:41:15;;;;;;;10.82;4.93;;;;;;;;;;4881166;29;20044;-82
2022/11/03 00:43:42;;;;;;;10.75;4.60;;;;;;;;;;4895390;29;20677;-82
2022/11/03 00:46:10;;;;;;;15.85;5.30;;;;;;;;;;4878449;29;20040;-82
2022/11/03 00:48:37;;;;;;;5.93;5.07;;;;;;;;;;4872938;29;20097;-82
2022/11/03 00:51:13;;;;;;;11.32;5.57;;;;;;;;;;4876210;29;20166;-83
2022/11/03 00:53:41;;;;;;;12.18;5.45;;;;;;;;;;4884905;29;20048;-83
2022/11/03 00:56:13;;;;;;;16.67;4.53;;;;;;;;;;4877135;29;20068;-82
2022/11/03 00:58:41;;;;;;;9.27;4.82;;;;;;;;;;4871984;29;20047;-82
2022/11/03 01:01:12;;;;;;;7.28;4.78;;;;;;;;;;4892974;29;20100;-82
2022/11/03 01:03:41;;;;;;;6.05;4.53;;;;;;;;;;4884580;29;20053;-82
2022/11/03 01:08:55;;;;;;;5.55;4.88;;;;;;;;;;4897386;29;20048;-82
2022/11/03 01:14:11;;;;;;;5.72;4.57;;;;;;;;;;4893280;29;20052;-82
2022/11/03 01:16:38;;;;;;;4.63;4.22;;;;;;;;;;4877231;29;20068;-82
2022/11/03 01:19:06;;;;;;;4.70;4.30;;;;;;;;;;4894022;29;20044;-82
2022/11/03 01:21:33;;;;;;;4.78;4.30;;;;;;;;;;4879041;29;20533;-82
2022/11/03 01:24:01;;;;;;;5.55;5.00;;;;;;;;;;4881988;29;20041;-83
2022/11/03 01:26:29;;;;;;;4.53;4.13;;;;;;;;;;4881205;29;20100;-82
2022/11/03 01:28:58;;;;;;;5.30;4.82;;;;;;;;;;4878615;29;20419;-82
2022/11/03 01:31:25;;;;;;;4.30;3.90;;;;;;;;;;4893623;29;20484;-82
2022/11/03 01:33:53;;;;;;;5.10;4.15;;;;;;;;;;4886155;29;20045;-83
2022/11/03 01:36:21;;;;;;;7.28;4.50;;;;;;;;;;4877631;29;20076;-83
2022/11/03 01:38:48;;;;;;;4.82;4.43;;;;;;;;;;4881635;29;20542;-83
2022/11/03 01:41:23;;;;;;;4.60;4.20;;;;;;;;;;4875266;29;20124;-82
2022/11/03 01:44:11;;;;;;;5.95;4.40;;;;;;;;;;4873911;29;20044;-84
2022/11/03 01:46:47;;;;;;;4.50;4.05;;;;;;;;;;4896063;29;20550;-81
2022/11/03 01:49:16;;;;;;;11.13;4.47;;;;;;;;;;4894996;29;20406;-81
2022/11/03 01:51:47;;;;;;;4.38;3.80;;;;;;;;;;4894419;29;20053;-82
2022/11/03 01:54:16;;;;;;;5.50;3.72;;;;;;;;;;4882741;29;20100;-84
2022/11/03 01:56:47;;;;;;;7.30;3.88;;;;;;;;;;4899146;29;20056;-83
2022/11/03 01:59:16;;;;;;;7.90;4.20;;;;;;;;;;4893026;29;20037;-84
2022/11/03 02:01:44;;;;;;;5.40;3.88;;;;;;;;;;4896124;29;20503;-83
2022/11/03 02:04:13;;;;;;;6.18;4.35;;;;;;;;;;4887302;29;20150;-83
2022/11/03 02:06:41;;;;;;;4.57;4.10;;;;;;;;;;4895661;29;20381;-83
2022/11/03 02:09:09;;;;;;;4.80;4.40;;;;;;;;;;4894329;29;20527;-83
2022/11/03 02:14:22;;;;;;;5.07;4.05;;;;;;;;;;4888174;29;20519;-83
2022/11/03 02:16:52;;;;;;;5.85;4.78;;;;;;;;;;4887970;29;20056;-83
2022/11/03 02:19:26;;;;;;;5.68;4.50;;;;;;;;;;4892733;29;20040;-83
2022/11/03 02:22:15;;;;;;;5.63;4.15;;;;;;;;;;4894973;29;20108;-83
2022/11/03 02:24:51;;;;;;;3.85;3.55;;;;;;;;;;4888337;29;20152;-83
2022/11/03 02:27:20;;;;;;;4.93;3.80;;;;;;;;;;4885225;29;20447;-83
2022/11/03 02:29:48;;;;;;;4.28;3.75;;;;;;;;;;4885810;29;20700;-83
2022/11/03 02:32:21;;;;;;;4.78;4.40;;;;;;;;;;4879610;29;20510;-83
2022/11/03 02:35:08;;;;;;;5.40;4.60;;;;;;;;;;4879267;29;20056;-83
2022/11/03 02:37:37;;;;;;;5.10;4.68;;;;;;;;;;4878910;29;20053;-82
2022/11/03 02:40:10;;;;;;;4.47;4.07;;;;;;;;;;4880067;29;20114;-82
2022/11/03 02:42:38;;;;;;;4.78;4.03;;;;;;;;;;4889368;29;20060;-82
2022/11/03 02:45:08;;;;;;;4.03;3.72;;;;;;;;;;4889150;29;20123;-82
2022/11/03 02:47:42;;;;;;;4.10;3.70;;;;;;;;;;4895579;29;20041;-82
2022/11/03 02:50:10;;;;;;;3.85;3.55;;;;;;;;;;4891217;29;20143;-82
2022/11/03 02:52:45;;;;;;;4.30;3.88;;;;;;;;;;4876538;29;20056;-82
2022/11/03 02:55:18;;;;;;;6.90;4.05;;;;;;;;;;4881423;29;20038;-82
2022/11/03 02:57:59;;;;;;;6.47;3.88;;;;;;;;;;4883111;29;20045;-81
2022/11/03 03:00:29;;;;;;;4.32;3.80;;;;;;;;;;4910008;29;20032;-81
2022/11/03 03:03:02;;;;;;;4.20;3.80;;;;;;;;;;4914314;29;20087;-82
2022/11/03 03:05:32;;;;;;;4.90;3.33;;;;;;;;;;4878386;29;20073;-81
2022/11/03 03:08:01;;;;;;;3.97;3.42;;;;;;;;;;4898942;29;20099;-82
2022/11/03 03:10:38;;;;;;;13.38;4.20;;;;;;;;;;4888798;29;20045;-83
2022/11/03 03:13:06;;;;;;;5.18;3.70;;;;;;;;;;4892777;29;20044;-84
2022/11/03 03:15:37;;;;;;;4.10;3.80;;;;;;;;;;4849165;29;20052;-83
2022/11/03 03:18:10;;;;;;;4.05;3.40;;;;;;;;;;4881118;29;20045;-83
2022/11/03 03:20:46;;;;;;;3.83;3.53;;;;;;;;;;4877411;29;20033;-83
2022/11/03 03:23:24;;;;;;;4.03;3.30;;;;;;;;;;4894715;29;20463;-83
2022/11/03 03:25:55;;;;;;;3.67;3.15;;;;;;;;;;4875024;29;20044;-82
2022/11/03 03:28:23;;;;;;;3.30;3.00;;;;;;;;;;4895583;29;20076;-83
2022/11/03 03:30:52;;;;;;;5.88;3.35;;;;;;;;;;4899466;29;20135;-83
2022/11/03 03:33:20;;;;;;;3.30;3.00;;;;;;;;;;4862248;29;20052;-83
2022/11/03 03:35:49;;;;;;;3.75;3.40;;;;;;;;;;4895178;29;20115;-83
2022/11/03 03:38:19;;;;;;;3.33;2.78;;;;;;;;;;4910401;29;20055;-83
2022/11/03 03:40:50;;;;;;;3.28;3.08;;;;;;;;;;4911855;29;20052;-83
2022/11/03 03:43:18;;;;;;;3.03;2.83;;;;;;;;;;4912523;29;20073;-83
2022/11/03 03:45:46;;;;;;;3.63;2.95;;;;;;;;;;4911089;29;20612;-83
2022/11/03 03:48:14;;;;;;;4.53;2.85;;;;;;;;;;4904119;29;20577;-83
2022/11/03 03:50:42;;;;;;;3.25;3.05;;;;;;;;;;4916678;29;20052;-83
2022/11/03 03:53:12;;;;;;;3.42;3.13;;;;;;;;;;4915856;29;20040;-83
2022/11/03 03:55:42;;;;;;;3.50;2.90;;;;;;;;;;4899967;29;20021;-84
2022/11/03 03:58:11;;;;;;;4.18;3.17;;;;;;;;;;4908359;29;20049;-83
2022/11/03 04:00:39;;;;;;;3.38;3.08;;;;;;;;;;4906725;29;20457;-83
2022/11/03 04:03:12;;;;;;;2.83;2.63;;;;;;;;;;4868307;29;20040;-83
2022/11/03 04:05:39;;;;;;;3.35;3.15;;;;;;;;;;4899495;29;20060;-83
2022/11/03 04:08:06;;;;;;;3.15;2.95;;;;;;;;;;4882617;29;20049;-84
2022/11/03 04:10:34;;;;;;;3.20;3.00;;;;;;;;;;4898485;29;20049;-83
2022/11/03 04:23:53;;;;;;;2.63;2.42;;;;;;;;;;4901041;29;20048;-84
2022/11/03 04:26:23;;;;;;;3.47;2.58;;;;;;;;;;4861558;29;20104;-83
2022/11/03 04:28:52;;;;;;;3.35;2.90;;;;;;;;;;4890446;29;20083;-84
2022/11/03 04:31:19;;;;;;;2.80;2.60;;;;;;;;;;4886689;29;20093;-84
2022/11/03 04:33:47;;;;;;;2.80;2.30;;;;;;;;;;4889369;29;20041;-83
2022/11/03 04:36:19;;;;;;;2.95;2.70;;;;;;;;;;4898579;29;20076;-83
2022/11/03 04:38:47;;;;;;;2.90;2.70;;;;;;;;;;4892047;29;20661;-83
2022/11/03 04:41:16;;;;;;;4.03;3.10;;;;;;;;;;4879046;29;20076;-83
2022/11/03 04:43:45;;;;;;;3.22;3.00;;;;;;;;;;4860088;29;20060;-83
2022/11/03 04:46:13;;;;;;;3.20;3.00;;;;;;;;;;4893437;29;20363;-83
2022/11/03 04:48:41;;;;;;;3.17;2.88;;;;;;;;;;4879906;29;20582;-82
2022/11/03 04:51:15;;;;;;;3.35;3.08;;;;;;;;;;4865183;29;20093;-83
2022/11/03 04:53:53;;;;;;;3.05;2.85;;;;;;;;;;4887621;29;20041;-82
2022/11/03 04:56:22;;;;;;;2.95;2.72;;;;;;;;;;4881334;29;20044;-83
2022/11/03 04:58:49;;;;;;;3.10;2.78;;;;;;;;;;4893072;29;20056;-82
2022/11/03 05:01:18;;;;;;;3.15;2.85;;;;;;;;;;4891265;29;20211;-83
2022/11/03 05:03:52;;;;;;;3.35;3.08;;;;;;;;;;4844665;29;20060;-83
2022/11/03 05:06:27;;;;;;;3.30;3.00;;;;;;;;;;4862763;29;20164;-83
2022/11/03 05:09:00;;;;;;;6.00;3.65;;;;;;;;;;4895984;29;20045;-84
2022/11/03 05:11:36;;;;;;;3.90;3.20;;;;;;;;;;4879617;29;20059;-83
2022/11/03 05:14:18;;;;;;;3.22;2.90;;;;;;;;;;4888406;29;20044;-83
2022/11/03 05:16:46;;;;;;;3.83;3.53;;;;;;;;;;4878391;29;20048;-84
2022/11/03 05:19:21;;;;;;;3.50;3.20;;;;;;;;;;4879303;29;20104;-83
2022/11/03 05:21:50;;;;;;;4.35;3.88;;;;;;;;;;4895476;29;20639;-82
2022/11/03 05:24:18;;;;;;;4.40;3.38;;;;;;;;;;4863847;29;20070;-83
2022/11/03 05:26:46;;;;;;;4.65;3.72;;;;;;;;;;4877953;29;20077;-83
2022/11/03 05:29:24;;;;;;;4.50;3.30;;;;;;;;;;4875989;29;20040;-83
2022/11/03 05:31:53;;;;;;;5.13;3.22;;;;;;;;;;4875291;29;20048;-83
2022/11/03 05:34:29;;;;;;;6.43;3.80;;;;;;;;;;4891853;29;20136;-83
2022/11/03 05:40:20;;;;;;;5.28;4.00;;;;;;;;;;4889527;29;20040;-82
2022/11/03 05:42:50;;;;;;;7.20;3.85;;;;;;;;;;4876073;29;20045;-83
2022/11/03 05:45:22;;;;;;;7.97;3.28;;;;;;;;;;4873507;29;20456;-83
2022/11/03 05:47:50;;;;;;;6.45;3.53;;;;;;;;;;4877313;29;20045;-83
2022/11/03 05:50:20;;;;;;;4.60;3.40;;;;;;;;;;4890005;29;20559;-82
2022/11/03 05:52:48;;;;;;;7.97;3.75;;;;;;;;;;4869869;29;20081;-82
2022/11/03 05:55:30;;;;;;;4.10;3.33;;;;;;;;;;4869127;29;20080;-83
2022/11/03 05:57:58;;;;;;;8.45;3.03;;;;;;;;;;4884950;29;20045;-84
2022/11/03 06:00:31;;;;;;;3.65;3.33;;;;;;;;;;4890321;29;20072;-83
2022/11/03 06:02:58;;;;;;;4.85;3.25;;;;;;;;;;4862660;29;20049;-83
2022/11/03 06:05:26;;;;;;;3.75;2.95;;;;;;;;;;4891834;29;20774;-83
2022/11/03 06:07:57;;;;;;;3.13;2.92;;;;;;;;;;4892150;29;20526;-84
2022/11/03 06:10:30;;;;;;;3.40;2.72;;;;;;;;;;4873831;29;20056;-84
2022/11/03 06:13:15;;;;;;;4.22;3.00;;;;;;;;;;4872875;29;20036;-85
2022/11/03 06:15:45;;;;;;;3.20;2.90;;;;;;;;;;4890227;29;20085;-83
2022/11/03 06:18:21;;;;;;;4.03;3.65;;;;;;;;;;4872885;29;20057;-84
2022/11/03 06:20:52;;;;;;;3.90;3.50;;;;;;;;;;4862025;29;20049;-83
2022/11/03 06:23:20;;;;;;;3.63;3.33;;;;;;;;;;4891923;29;20124;-83
2022/11/03 06:25:48;;;;;;;3.60;3.30;;;;;;;;;;4886779;29;20430;-83
2022/11/03 06:28:36;;;;;;;4.15;3.75;;;;;;;;;;4893864;29;20108;-84
2022/11/03 06:31:05;;;;;;;7.43;3.83;;;;;;;;;;4860475;29;20080;-83
2022/11/03 06:33:35;;;;;;;4.40;4.00;;;;;;;;;;4875352;29;20052;-83
2022/11/03 06:36:10;;;;;;;5.97;4.13;;;;;;;;;;4893630;29;20510;-84
2022/11/03 06:38:37;;;;;;;5.80;4.00;;;;;;;;;;4881230;29;20060;-82
2022/11/03 06:41:29;;;;;;;4.80;4.30;;;;;;;;;;4838737;29;20638;-82
2022/11/03 06:43:56;;;;;;;;;;;;;;;;;;4855277;29;20049;-84
2022/11/03 06:46:25;;;;;;;4.93;3.83;;;;;;;;;;4885761;29;20421;-84
2022/11/03 06:48:53;;;;;;;4.05;3.65;;;;;;;;;;4871862;29;20602;-84
2022/11/03 06:51:49;;;;;;;3.80;3.50;;;;;;;;;;4930672;23;20473;-75
2022/11/03 06:55:29;;;;;;;4.20;3.80;;;;;;;;;;4803862;29;20120;-75
2022/11/03 07:16:31;;;;;;;7.38;4.65;;;;;;;;;;5023097;28;20038;-75
2022/11/03 07:18:59;;;;;;;5.47;4.85;;;;;;;;;;5023412;28;20458;-74
2022/11/03 07:21:35;;;;;;;7.75;4.60;;;;;;;;;;5023998;28;20445;-73
2022/11/03 07:24:12;;;;;;;4.70;3.55;;;;;;;;;;5019923;28;20042;-73
2022/11/03 07:26:40;;;;;;;4.43;3.60;;;;;;;;;;5015867;28;20065;-73
2022/11/03 07:29:18;;;;;;;3.60;3.30;;;;;;;;;;5016707;28;20045;-74
2022/11/03 07:31:45;;;;;;;3.40;3.10;;;;;;;;;;5008685;28;20073;-74
2022/11/03 07:34:15;;;;;;;3.70;3.35;;;;;;;;;;4997617;28;20042;-73
2022/11/03 07:36:43;;;;;;;3.95;2.95;;;;;;;;;;5000592;28;20053;-74
2022/11/03 07:39:17;;;;;;;4.45;3.20;;;;;;;;;;5004895;28;20050;-75
2022/11/03 07:41:45;;;;;;;3.00;2.80;;;;;;;;;;5017790;28;20145;-76
2022/11/03 07:44:16;;;;;;;6.38;3.00;;;;;;;;;;4992719;28;20502;-76
2022/11/03 07:46:43;;;;;;;3.35;3.00;;;;;;;;;;5016886;28;20048;-75
2022/11/03 07:49:20;;;;;;;5.35;3.00;;;;;;;;;;5016737;28;20058;-75
2022/11/03 07:51:49;;;;;;;3.50;3.20;;;;;;;;;;5018117;28;20037;-76
2022/11/03 07:54:17;;;;;;;4.13;3.70;;;;;;;;;;5022327;28;20660;-75
2022/11/03 07:56:47;;;;;;;4.25;3.50;;;;;;;;;;5018806;28;20342;-76
2022/11/03 07:59:18;;;;;;;5.60;3.65;;;;;;;;;;5016002;28;20039;-76
2022/11/03 08:01:50;;;;;;;4.28;3.80;;;;;;;;;;5022090;28;20137;-76
2022/11/03 08:04:22;;;;;;;3.78;3.33;;;;;;;;;;5022768;28;20061;-76
2022/11/03 08:06:50;;;;;;;5.57;4.18;;;;;;;;;;5018602;28;20042;-76
2022/11/03 08:09:22;;;;;;;4.10;3.80;;;;;;;;;;5020813;28;20050;-76
2022/11/03 08:11:50;;;;;;;6.53;3.70;;;;;;;;;;5018237;28;20048;-76
2022/11/03 08:14:17;;;;;;;4.50;3.58;;;;;;;;;;5020597;28;20042;-76
2022/11/03 08:16:45;;;;;;;4.07;3.78;;;;;;;;;;4987475;28;20050;-75
2022/11/03 08:19:13;;;;;;;7.20;4.40;;;;;;;;;;5004050;28;20042;-75
2022/11/03 08:21:40;;;;;;;3.92;3.60;;;;;;;;;;5005704;28;20038;-76
2022/11/03 08:24:07;;;;;;;6.05;3.78;;;;;;;;;;5007847;28;20053;-74
2022/11/03 08:26:34;;;;;;;4.60;4.03;;;;;;;;;;5003609;28;20076;-74
2022/11/03 08:29:02;;;;;;;4.63;4.20;;;;;;;;;;4993375;28;20049;-75
2022/11/03 08:31:29;;;;;;;4.25;3.85;;;;;;;;;;5003243;28;20068;-75
2022/11/03 08:33:56;;;;;;;4.13;3.72;;;;;;;;;;5008874;28;20446;-74
2022/11/03 08:39:24;;;;;;;4.25;3.30;;;;;;;;;;5007394;28;20120;-76
2022/11/03 08:41:51;;;;;;;4.65;4.22;;;;;;;;;;5008552;28;20556;-75
2022/11/03 08:44:19;;;;;;;3.90;3.60;;;;;;;;;;5001969;28;20115;-75
2022/11/03 08:46:46;;;;;;;4.10;3.80;;;;;;;;;;5006522;28;20045;-75
2022/11/03 08:49:14;;;;;;;3.95;3.55;;;;;;;;;;4977209;28;20045;-74
2022/11/03 08:51:41;;;;;;;4.63;4.10;;;;;;;;;;5013986;28;20103;-75
2022/11/03 08:54:11;;;;;;;6.28;4.47;;;;;;;;;;5001389;28;20078;-75
2022/11/03 08:56:38;;;;;;;10.32;5.03;;;;;;;;;;4998626;28;20042;-75
2022/11/03 08:59:05;;;;;;;6.55;4.50;;;;;;;;;;4993339;28;20065;-76
2022/11/03 09:01:33;;;;;;;4.93;4.40;;;;;;;;;;5006558;28;20061;-74
2022/11/03 09:04:00;;;;;;;6.93;4.25;;;;;;;;;;5005274;28;20038;-76
2022/11/03 09:06:28;;;;;;;5.40;4.25;;;;;;;;;;5008886;28;20046;-75
2022/11/03 09:08:55;;;;;;;6.22;4.15;;;;;;;;;;5007170;28;20425;-76
2022/11/03 09:11:42;;;;;;;4.53;3.53;;;;;;;;;;5003339;28;20383;-75
2022/11/03 09:14:10;;;;;;;3.80;3.50;;;;;;;;;;5012479;28;20073;-75
2022/11/03 09:16:37;;;;;;;4.25;3.92;;;;;;;;;;5002065;28;20053;-75
2022/11/03 09:19:04;;;;;;;3.30;2.97;;;;;;;;;;4994533;28;20406;-76
2022/11/03 09:21:32;;;;;;;3.50;3.08;;;;;;;;;;4998046;28;20125;-77
2022/11/03 09:23:59;;;;;;;3.80;2.80;;;;;;;;;;5005024;28;20038;-75
2022/11/03 09:26:26;;;;;;;2.92;2.65;;;;;;;;;;5008444;28;20042;-76
2022/11/03 09:28:54;;;;;;;5.00;2.72;;;;;;;;;;5006659;28;20039;-75
2022/11/03 09:31:23;;;;;;;9.23;3.30;;;;;;;;;;5007007;28;20430;-76
2022/11/03 09:33:50;;;;;;;4.00;3.10;;;;;;;;;;5000670;28;20402;-76
2022/11/03 09:36:18;;;;;;;5.13;3.28;;;;;;;;;;4996986;28;22072;-76
2022/11/03 09:38:45;;;;;;;5.50;3.30;;;;;;;;;;5004436;28;20048;-75
2022/11/03 09:41:16;;;;;;;4.40;3.10;;;;;;;;;;4987781;28;20049;-76
2022/11/03 09:44:01;;;;;;;6.40;3.75;;;;;;;;;;5004382;28;20049;-75
2022/11/03 09:46:29;;;;;;;3.67;3.17;;;;;;;;;;5006510;28;20100;-76
2022/11/03 09:48:58;;;;;;;4.40;3.00;;;;;;;;;;5008390;28;20038;-76
2022/11/03 09:51:27;;;;;;;3.03;2.83;;;;;;;;;;5007449;28;20516;-75
2022/11/03 09:53:56;;;;;;;3.42;2.90;;;;;;;;;;5006478;28;20487;-75
2022/11/03 09:56:25;;;;;;;4.63;3.10;;;;;;;;;;5006486;28;20073;-76
2022/11/03 09:58:52;;;;;;;4.57;3.35;;;;;;;;;;5007522;28;20417;-76
2022/11/03 10:01:21;;;;;;;4.78;3.05;;;;;;;;;;5006252;28;20598;-75
2022/11/03 10:03:49;;;;;;;4.20;2.88;;;;;;;;;;5006341;28;20048;-75
2022/11/03 10:06:16;;;;;;;2.47;2.28;;;;;;;;;;5007551;28;20042;-75
2022/11/03 10:08:44;;;;;;;3.28;2.97;;;;;;;;;;5006169;28;20375;-76
2022/11/03 10:11:12;;;;;;;5.18;2.55;;;;;;;;;;5005875;28;20050;-76
2022/11/03 10:13:40;;;;;;;6.40;2.65;;;;;;;;;;5007404;28;20038;-76
2022/11/03 10:16:09;;;;;;;5.85;2.58;;;;;;;;;;5007428;28;20577;-76
2022/11/03 10:18:37;;;;;;;3.85;2.63;;;;;;;;;;5007656;28;20081;-75
2022/11/03 10:21:05;;;;;;;4.68;2.85;;;;;;;;;;5006238;28;20490;-75
2022/11/03 10:23:33;;;;;;;3.42;2.72;;;;;;;;;;5007890;28;20222;-75
2022/11/03 10:26:10;;;;;;;3.13;2.58;;;;;;;;;;5007406;28;20038;-75
2022/11/03 10:28:38;;;;;;;4.18;2.75;;;;;;;;;;5007186;28;20069;-76
2022/11/03 10:31:07;;;;;;;4.93;2.78;;;;;;;;;;5005302;28;20045;-76
2022/11/03 10:33:39;;;;;;;5.45;2.75;;;;;;;;;;5006273;28;20050;-76
2022/11/03 10:36:07;;;;;;;3.40;2.25;;;;;;;;;;5005788;28;20056;-76
2022/11/03 10:38:35;;;;;;;6.90;3.15;;;;;;;;;;5007382;28;20046;-76
2022/11/03 10:41:16;;;;;;;4.53;2.50;;;;;;;;;;5006075;28;20058;-77
2022/11/03 10:43:46;;;;;;;4.65;3.35;;;;;;;;;;5006797;28;20052;-75
2022/11/03 10:46:16;;;;;;;5.75;3.20;;;;;;;;;;5007211;28;20485;-76
2022/11/03 10:49:05;;;;;;;4.15;2.35;;;;;;;;;;5007206;28;20061;-77
2022/11/03 10:51:37;;;;;;;4.07;2.47;;;;;;;;;;5006644;28;20473;-76
2022/11/03 10:54:05;;;;;;;2.95;2.40;;;;;;;;;;5007064;28;20042;-76
2022/11/03 10:56:35;;;;;;;3.17;2.60;;;;;;;;;;5006679;28;20471;-76
2022/11/03 10:59:03;;;;;;;3.20;2.90;;;;;;;;;;5007509;28;20046;-76
2022/11/03 11:01:31;;;;;;;6.70;2.95;;;;;;;;;;5004378;28;20046;-75
2022/11/03 11:03:58;;;;;;;4.45;3.13;;;;;;;;;;5000328;28;20505;-74
2022/11/03 11:06:27;;;;;;;3.53;3.22;;;;;;;;;;4985928;28;20041;-74
2022/11/03 11:08:59;;;;;;;3.90;2.97;;;;;;;;;;5005021;28;20042;-75
2022/11/03 11:11:27;;;;;;;4.18;3.05;;;;;;;;;;5000867;28;20502;-75
2022/11/03 11:14:13;;;;;;;4.45;2.85;;;;;;;;;;5002452;28;20445;-75
2022/11/03 11:16:51;;;;;;;3.92;2.63;;;;;;;;;;4995392;28;20132;-75
2022/11/03 11:19:18;;;;;;;2.70;2.50;;;;;;;;;;4993815;28;20069;-75
2022/11/03 11:21:56;;;;;;;3.60;2.85;;;;;;;;;;4989558;28;20054;-75
2022/11/03 11:24:50;;;;;;;4.30;3.00;;;;;;;;;;5007068;28;20096;-74
2022/11/03 11:27:30;;;;;;;3.83;2.85;;;;;;;;;;5001650;28;20145;-75
2022/11/03 11:30:03;;;;;;;4.65;2.90;;;;;;;;;;5006366;28;20460;-74
2022/11/03 11:32:47;;;;;;;3.33;3.05;;;;;;;;;;5006053;28;20034;-75
2022/11/03 11:35:17;;;;;;;5.55;2.83;;;;;;;;;;5005535;28;20070;-75
2022/11/03 11:37:44;;;;;;;3.90;2.72;;;;;;;;;;4989146;28;20046;-75
2022/11/03 11:40:13;;;;;;;3.95;2.78;;;;;;;;;;5005526;28;20066;-75
2022/11/03 11:42:59;;;;;;;4.15;3.25;;;;;;;;;;5005929;28;20115;-75
2022/11/03 11:45:45;;;;;;;5.30;2.90;;;;;;;;;;5006757;28;20502;-75
2022/11/03 11:48:17;;;;;;;4.35;3.20;;;;;;;;;;5004336;28;20057;-75
2022/11/03 11:50:45;;;;;;;5.13;3.88;;;;;;;;;;5004346;28;20042;-74
2022/11/03 11:53:18;;;;;;;6.63;3.50;;;;;;;;;;5008390;28;20042;-75
2022/11/03 11:55:47;;;;;;;5.38;3.67;;;;;;;;;;5015173;28;20486;-75
2022/11/03 11:58:21;;;;;;;4.95;3.15;;;;;;;;;;5010221;28;20108;-75
2022/11/03 12:00:53;;;;;;;4.57;3.60;;;;;;;;;;5005257;28;20549;-75
2022/11/03 12:03:24;;;;;;;3.42;2.92;;;;;;;;;;5003864;28;20038;-75
2022/11/03 12:05:51;;;;;;;3.60;3.30;;;;;;;;;;5009156;28;20037;-75
2022/11/03 12:08:20;;;;;;;5.38;3.85;;;;;;;;;;5005939;28;21688;-76
2022/11/03 12:11:13;;;;;;;5.63;3.55;;;;;;;;;;5007728;28;20042;-76
2022/11/03 12:13:42;;;;;;;5.72;3.42;;;;;;;;;;5002578;28;20060;-75
2022/11/03 12:16:28;;;;;;;4.00;3.40;;;;;;;;;;5008011;28;20053;-76
2022/11/03 12:18:56;;;;;;;5.88;3.15;;;;;;;;;;5007903;28;20112;-75
2022/11/03 12:21:45;;;;;;;3.63;3.25;;;;;;;;;;5009274;28;20122;-75
2022/11/03 12:24:25;;;;;;;5.95;3.33;;;;;;;;;;5009089;28;20632;-75
2022/11/03 12:26:52;;;;;;;3.78;3.38;;;;;;;;;;5005092;28;20034;-75
2022/11/03 12:29:20;;;;;;;6.57;3.05;;;;;;;;;;5010603;28;20096;-74
2022/11/03 12:31:47;;;;;;;5.63;3.03;;;;;;;;;;5007320;28;20049;-74
2022/11/03 12:34:15;;;;;;;6.72;2.80;;;;;;;;;;5003479;28;20049;-74
2022/11/03 12:36:45;;;;;;;3.22;2.75;;;;;;;;;;5007418;28;20060;-75
2022/11/03 12:39:18;;;;;;;4.95;3.20;;;;;;;;;;5006916;28;20414;-75
2022/11/03 12:41:45;;;;;;;3.60;3.00;;;;;;;;;;5002627;28;20415;-77
2022/11/03 12:44:12;;;;;;;3.08;2.72;;;;;;;;;;5007158;28;20100;-73
2022/11/03 12:46:40;;;;;;;6.45;2.95;;;;;;;;;;5009175;28;20045;-73
2022/11/03 12:49:07;;;;;;;5.55;3.00;;;;;;;;;;5007391;28;20494;-73
2022/11/03 12:51:34;;;;;;;4.30;3.50;;;;;;;;;;5008625;28;20041;-74
2022/11/03 12:54:01;;;;;;;4.35;3.20;;;;;;;;;;4991434;28;20397;-74
2022/11/03 12:56:29;;;;;;;4.60;3.42;;;;;;;;;;4991576;28;20049;-74
2022/11/03 12:58:56;;;;;;;5.30;3.03;;;;;;;;;;5008972;28;20061;-74
2022/11/03 13:01:24;;;;;;;4.32;2.72;;;;;;;;;;5002242;28;20053;-74
2022/11/03 13:03:51;;;;;;;4.60;2.70;;;;;;;;;;5008289;28;20041;-75
2022/11/03 13:06:18;;;;;;;3.55;3.00;;;;;;;;;;4991171;28;20148;-74
2022/11/03 13:08:48;;;;;;;5.43;3.05;;;;;;;;;;5008767;28;20042;-73
2022/11/03 13:14:05;;;;;;;4.47;3.10;;;;;;;;;;5007344;28;20042;-74
2022/11/03 13:16:32;;;;;;;3.15;2.85;;;;;;;;;;5009076;28;20057;-74
2022/11/03 13:19:00;;;;;;;3.67;2.70;;;;;;;;;;5008967;28;20065;-74
2022/11/03 13:21:27;;;;;;;3.22;2.45;;;;;;;;;;5007735;28;20100;-73
2022/11/03 13:23:55;;;;;;;3.65;3.28;;;;;;;;;;5007070;28;20041;-74
2022/11/03 13:26:22;;;;;;;5.68;3.15;;;;;;;;;;5008813;28;20034;-74
2022/11/03 13:28:50;;;;;;;3.05;2.80;;;;;;;;;;5008615;28;20075;-75
2022/11/03 13:31:17;;;;;;;3.83;2.90;;;;;;;;;;5008515;28;20046;-74
2022/11/03 13:33:44;;;;;;;3.53;2.95;;;;;;;;;;5008133;28;20034;-77
2022/11/03 13:36:12;;;;;;;4.05;2.78;;;;;;;;;;4991417;28;20046;-74
2022/11/03 13:38:39;;;;;;;2.78;2.53;;;;;;;;;;5006875;28;20060;-74
2022/11/03 13:41:06;;;;;;;3.20;2.90;;;;;;;;;;5007464;28;20502;-74
2022/11/03 13:43:35;;;;;;;5.13;2.38;;;;;;;;;;5008904;28;20057;-74
2022/11/03 13:46:03;;;;;;;4.28;2.67;;;;;;;;;;5007296;28;20041;-75
2022/11/03 13:48:31;;;;;;;5.63;2.90;;;;;;;;;;5007339;28;20104;-74
2022/11/03 13:51:20;;;;;;;4.78;2.83;;;;;;;;;;5006350;28;20038;-77
2022/11/03 13:53:47;;;;;;;6.43;3.22;;;;;;;;;;5008004;28;20434;-75
2022/11/03 13:56:35;;;;;;;4.25;2.80;;;;;;;;;;5008891;28;20050;-75
2022/11/03 13:59:23;;;;;;;3.15;2.78;;;;;;;;;;5007728;28;20065;-75
2022/11/03 14:01:55;;;;;;;6.30;2.90;;;;;;;;;;5008403;28;20398;-75
2022/11/03 14:04:42;;;;;;;2.92;2.60;;;;;;;;;;4994405;28;20124;-75
2022/11/03 14:07:11;;;;;;;4.38;2.70;;;;;;;;;;5007319;28;20071;-75
2022/11/03 14:09:38;;;;;;;4.00;2.70;;;;;;;;;;5007378;28;20379;-74
2022/11/03 14:14:52;;;;;;;6.00;3.17;;;;;;;;;;5007837;28;20111;-75
2022/11/03 14:17:19;;;;;;;6.05;4.00;;;;;;;;;;5008371;28;20474;-75
2022/11/03 14:19:46;;;;;;;4.18;3.78;;;;;;;;;;4991318;28;20061;-75
2022/11/03 14:22:22;;;;;;;4.88;3.97;;;;;;;;;;5009055;28;20131;-75
2022/11/03 14:24:50;;;;;;;5.20;3.63;;;;;;;;;;5009157;28;20141;-75
2022/11/03 14:27:18;;;;;;;11.88;4.00;;;;;;;;;;4991105;28;20296;-75
2022/11/03 14:29:49;;;;;;;4.10;3.80;;;;;;;;;;5008410;28;20226;-75
2022/11/03 14:32:17;;;;;;;4.65;3.95;;;;;;;;;;5007987;28;20066;-76
2022/11/03 14:34:45;;;;;;;4.95;3.90;;;;;;;;;;5006951;28;20046;-75
2022/11/03 14:37:12;;;;;;;5.70;4.70;;;;;;;;;;5007423;28;20100;-75
2022/11/03 14:39:40;;;;;;;7.28;4.80;;;;;;;;;;5009898;28;20057;-75
2022/11/03 14:42:15;;;;;;;7.68;5.43;;;;;;;;;;5009284;28;20050;-75
2022/11/03 14:44:43;;;;;;;7.78;4.72;;;;;;;;;;5009230;28;20505;-75
2022/11/03 14:47:12;;;;;;;7.07;4.38;;;;;;;;;;5007510;28;20042;-75
2022/11/03 14:49:40;;;;;;;4.40;4.00;;;;;;;;;;5008846;28;20393;-75
2022/11/03 14:52:07;;;;;;;5.93;4.18;;;;;;;;;;5008869;28;20041;-75
2022/11/03 14:54:35;;;;;;;8.63;4.10;;;;;;;;;;5008513;28;20045;-75
2022/11/03 14:57:03;;;;;;;4.38;3.92;;;;;;;;;;5008554;28;20053;-75
2022/11/03 14:59:30;;;;;;;7.47;3.83;;;;;;;;;;5007264;28;20065;-75
2022/11/03 15:01:58;;;;;;;5.28;4.07;;;;;;;;;;5008057;28;20470;-75
2022/11/03 15:04:26;;;;;;;6.65;3.50;;;;;;;;;;5008435;28;20046;-75
2022/11/03 15:06:53;;;;;;;6.70;3.85;;;;;;;;;;5007921;28;20038;-75
2022/11/03 15:09:20;;;;;;;5.85;5.15;;;;;;;;;;5007857;28;20046;-76
2022/11/03 15:11:48;;;;;;;9.48;7.20;;;;;;;;;;5006666;28;20069;-75
2022/11/03 15:14:16;;;;;;;11.52;6.65;;;;;;;;;;5007607;28;20064;-75
2022/11/03 15:16:44;;;;;;;9.23;5.60;;;;;;;;;;5008271;28;20050;-75
2022/11/03 15:19:12;;;;;;;10.95;5.15;;;;;;;;;;5008621;28;20042;-75
2022/11/03 15:21:39;;;;;;;12.13;5.07;;;;;;;;;;5007307;28;20049;-75
2022/11/03 15:24:07;;;;;;;5.60;4.22;;;;;;;;;;5007857;28;20074;-75
2022/11/03 15:26:54;;;;;;;6.50;5.68;;;;;;;;;;5009664;28;20501;-75
2022/11/03 15:29:23;;;;;;;7.70;4.40;;;;;;;;;;5012482;28;20038;-75
2022/11/03 15:31:52;;;;;;;5.93;4.30;;;;;;;;;;5011706;28;20056;-75
2022/11/03 15:34:19;;;;;;;6.35;4.60;;;;;;;;;;5012030;28;20075;-75
2022/11/03 15:36:49;;;;;;;7.35;4.97;;;;;;;;;;5010390;28;20409;-74
2022/11/03 15:39:16;;;;;;;6.40;5.25;;;;;;;;;;5009489;28;20054;-76
2022/11/03 15:41:45;;;;;;;9.48;6.80;;;;;;;;;;5010133;28;20041;-75
2022/11/03 15:44:12;;;;;;;11.35;7.00;;;;;;;;;;4977551;28;20058;-76
2022/11/03 15:46:40;;;;;;;10.00;6.53;;;;;;;;;;5010302;28;20401;-75
2022/11/03 15:49:07;;;;;;;7.95;6.38;;;;;;;;;;5010915;28;20046;-75
2022/11/03 15:51:37;;;;;;;10.25;6.53;;;;;;;;;;5009618;28;20406;-76
2022/11/03 15:54:04;;;;;;;9.52;6.97;;;;;;;;;;5010859;28;20072;-76